Time;durP1;ratioP1;P1;durP2;ratioP2;P2;SDS_P1;SDS_P2;PMS_P1;PMS_P2;Temp;Humidity;BMP_temperature;BMP_pressure;BME280_temperature;BME280_humidity;BME280_pressure;Samples;Min_cycle;Max_cycle;Signal;HPM_P1;HPM_P2
2023/01/22 00:01:28;;;;;;;18.80;15.13;;;0.70;99.90;;;;;;4973073;28;20046;-74
2023/01/22 00:03:53;;;;;;;16.90;14.80;;;0.70;99.90;;;;;;5004576;28;20052;-74
2023/01/22 00:06:20;;;;;;;16.87;15.13;;;0.70;99.90;;;;;;4951991;28;20060;-74
2023/01/22 00:08:47;;;;;;;16.93;15.20;;;0.60;99.90;;;;;;4969947;28;20129;-74
2023/01/22 00:11:14;;;;;;;16.20;14.47;;;0.60;99.90;;;;;;4984749;28;20050;-73
2023/01/22 00:13:40;;;;;;;17.83;16.00;;;0.50;99.90;;;;;;4968695;28;20054;-73
2023/01/22 00:16:06;;;;;;;15.60;14.00;;;0.50;99.90;;;;;;4985625;28;20045;-74
2023/01/22 00:18:33;;;;;;;15.60;14.00;;;0.50;99.90;;;;;;4935665;28;20101;-74
2023/01/22 00:20:59;;;;;;;18.47;15.27;;;0.50;99.90;;;;;;4986288;28;20141;-74
2023/01/22 00:23:25;;;;;;;17.80;15.13;;;0.50;99.90;;;;;;4985849;28;20050;-74
2023/01/22 00:26:06;;;;;;;17.80;16.00;;;0.50;99.90;;;;;;4987265;28;20668;-74
2023/01/22 00:28:32;;;;;;;17.40;14.80;;;0.50;99.90;;;;;;4987347;28;20409;-74
2023/01/22 00:31:03;;;;;;;18.13;15.97;;;0.40;99.90;;;;;;4970199;28;20037;-74
2023/01/22 00:33:29;;;;;;;16.97;15.17;;;0.40;99.90;;;;;;4972743;28;20053;-74
2023/01/22 00:35:56;;;;;;;19.63;17.47;;;0.40;99.90;;;;;;4983789;28;20455;-74
2023/01/22 00:38:22;;;;;;;20.57;18.33;;;0.40;99.90;;;;;;4971171;28;20046;-73
2023/01/22 00:40:47;;;;;;;21.43;18.73;;;0.40;99.90;;;;;;4968526;28;20037;-72
2023/01/22 00:43:13;;;;;;;23.70;20.10;;;0.40;99.90;;;;;;4971611;28;20408;-71
2023/01/22 00:45:39;;;;;;;24.23;21.00;;;0.40;99.90;;;;;;4953097;28;20081;-71
2023/01/22 00:48:08;;;;;;;23.67;20.10;;;0.30;99.90;;;;;;4986939;28;20056;-71
2023/01/22 00:50:33;;;;;;;26.17;21.70;;;0.30;99.90;;;;;;4973822;28;20436;-71
2023/01/22 00:53:02;;;;;;;28.40;24.57;;;0.30;99.90;;;;;;4954690;28;20077;-71
2023/01/22 00:55:28;;;;;;;30.77;24.20;;;0.40;99.90;;;;;;4966548;28;20054;-72
2023/01/22 00:57:54;;;;;;;31.47;25.27;;;0.40;99.90;;;;;;4985995;28;20492;-72
2023/01/22 01:00:21;;;;;;;29.33;24.90;;;0.30;99.90;;;;;;4984951;28;20045;-72
2023/01/22 01:05:32;;;;;;;33.57;27.33;;;0.30;99.90;;;;;;4974310;28;20073;-72
2023/01/22 01:07:58;;;;;;;33.97;27.70;;;0.30;99.90;;;;;;4985944;28;20645;-71
2023/01/22 01:10:24;;;;;;;33.80;28.13;;;0.30;99.90;;;;;;4970710;28;20046;-71
2023/01/22 01:12:50;;;;;;;35.17;27.10;;;0.20;99.90;;;;;;4961476;28;20382;-72
2023/01/22 01:15:16;;;;;;;29.30;25.93;;;0.20;99.90;;;;;;4985693;28;20042;-72
2023/01/22 01:17:41;;;;;;;31.13;26.67;;;0.20;99.90;;;;;;4986031;28;20038;-72
2023/01/22 01:20:08;;;;;;;31.33;26.20;;;0.10;99.90;;;;;;4988234;28;20477;-72
2023/01/22 01:22:34;;;;;;;32.93;26.77;;;0.20;99.90;;;;;;4968870;28;20053;-72
2023/01/22 01:25:00;;;;;;;34.87;27.57;;;0.10;99.90;;;;;;4952958;28;20107;-72
2023/01/22 01:27:25;;;;;;;33.20;27.80;;;0.20;99.90;;;;;;4986472;28;20057;-72
2023/01/22 01:29:51;;;;;;;35.67;27.57;;;0.10;99.90;;;;;;4973016;28;20045;-72
2023/01/22 01:32:17;;;;;;;34.87;27.33;;;0.00;99.90;;;;;;4967113;28;20050;-72
2023/01/22 01:34:44;;;;;;;31.73;26.97;;;0.00;99.90;;;;;;4966725;28;20441;-71
2023/01/22 01:37:10;;;;;;;34.40;25.87;;;0.00;99.90;;;;;;4986690;28;20117;-71
2023/01/22 01:39:35;;;;;;;34.03;28.53;;;0.00;99.90;;;;;;4970711;28;20058;-71
2023/01/22 01:42:01;;;;;;;35.53;28.20;;;-0.10;99.90;;;;;;4970027;28;20054;-71
2023/01/22 01:44:31;;;;;;;34.33;27.67;;;-0.10;99.90;;;;;;4970689;28;20056;-71
2023/01/22 01:47:04;;;;;;;38.60;28.38;;;-0.10;99.90;;;;;;4983903;28;20049;-72
2023/01/22 01:49:51;;;;;;;31.33;27.57;;;-0.10;99.90;;;;;;4969366;28;20046;-72
2023/01/22 01:52:17;;;;;;;32.27;27.33;;;-0.10;99.90;;;;;;4987169;28;20129;-72
2023/01/22 01:54:48;;;;;;;36.00;28.23;;;-0.20;99.90;;;;;;4953636;28;20042;-72
2023/01/22 01:57:26;;;;;;;32.08;26.25;;;-0.10;99.90;;;;;;4969945;28;20046;-72
2023/01/22 01:59:53;;;;;;;29.33;25.93;;;-0.30;99.90;;;;;;4970341;28;20041;-72
2023/01/22 02:02:19;;;;;;;32.87;26.80;;;-0.30;99.90;;;;;;4968532;28;20393;-72
2023/01/22 02:04:45;;;;;;;32.27;27.13;;;-0.30;99.90;;;;;;4962673;28;20349;-73
2023/01/22 02:07:11;;;;;;;32.27;26.40;;;-0.30;99.90;;;;;;4967825;28;20408;-71
2023/01/22 02:09:37;;;;;;;31.13;26.53;;;-0.30;99.90;;;;;;4968966;28;20045;-72
2023/01/22 02:12:07;;;;;;;30.17;24.87;;;-0.30;99.90;;;;;;4968960;28;20052;-72
2023/01/22 02:14:38;;;;;;;29.27;25.27;;;-0.30;99.90;;;;;;4985841;28;20149;-72
2023/01/22 02:17:21;;;;;;;28.40;25.03;;;-0.30;99.90;;;;;;4972096;28;20520;-72
2023/01/22 02:19:47;;;;;;;30.27;24.03;;;-0.30;99.90;;;;;;4984203;28;20398;-72
2023/01/22 02:22:28;;;;;;;31.13;25.70;;;-0.30;99.90;;;;;;4986131;28;20321;-72
2023/01/22 02:24:54;;;;;;;29.37;26.17;;;-0.20;99.90;;;;;;4984502;28;20468;-72
2023/01/22 02:27:20;;;;;;;30.83;25.83;;;-0.20;99.90;;;;;;4965505;28;20054;-73
2023/01/22 02:29:46;;;;;;;29.13;24.97;;;-0.20;99.90;;;;;;4985178;28;20030;-72
2023/01/22 02:32:18;;;;;;;30.67;24.83;;;-0.20;99.90;;;;;;4961360;28;20403;-72
2023/01/22 02:34:44;;;;;;;28.57;24.97;;;-0.10;99.90;;;;;;4980622;28;20495;-72
2023/01/22 02:37:10;;;;;;;28.53;23.93;;;-0.10;99.90;;;;;;4951003;28;20056;-73
2023/01/22 02:39:35;;;;;;;23.80;21.23;;;-0.10;99.90;;;;;;4951833;28;20642;-72
2023/01/22 02:42:03;;;;;;;24.13;20.33;;;0.00;99.90;;;;;;4983628;28;20046;-72
2023/01/22 02:44:29;;;;;;;24.23;21.63;;;0.10;99.90;;;;;;4980915;28;20154;-72
2023/01/22 02:46:54;;;;;;;25.87;21.30;;;0.20;99.90;;;;;;4966866;28;20045;-72
2023/01/22 02:49:20;;;;;;;24.07;21.03;;;0.30;99.90;;;;;;4982158;28;20161;-73
2023/01/22 02:51:46;;;;;;;24.20;20.47;;;0.30;99.90;;;;;;4966312;28;20034;-72
2023/01/22 02:54:12;;;;;;;23.73;19.77;;;0.30;99.90;;;;;;4964441;28;20050;-72
2023/01/22 02:56:38;;;;;;;22.17;19.43;;;0.40;99.90;;;;;;4967364;28;20057;-71
2023/01/22 02:59:06;;;;;;;23.50;20.07;;;0.50;99.90;;;;;;4978418;28;20706;-73
2023/01/22 03:01:32;;;;;;;20.70;18.60;;;0.60;99.90;;;;;;4961567;28;20554;-72
2023/01/22 03:04:09;;;;;;;21.37;19.07;;;0.60;99.90;;;;;;4951925;28;20103;-73
2023/01/22 03:06:42;;;;;;;20.80;18.37;;;0.60;99.90;;;;;;4975103;28;20053;-73
2023/01/22 03:09:14;;;;;;;21.17;18.03;;;0.60;99.90;;;;;;4967979;28;20085;-73
2023/01/22 03:11:41;;;;;;;21.07;17.67;;;0.70;99.90;;;;;;4982715;28;20084;-72
2023/01/22 03:22:21;;;;;;;18.07;14.77;;;0.70;99.90;;;;;;4971826;28;20049;-74
2023/01/22 03:24:51;;;;;;;19.83;15.60;;;0.80;99.90;;;;;;4989897;28;20037;-73
2023/01/22 03:27:19;;;;;;;17.02;15.25;;;0.90;99.90;;;;;;4969395;28;20141;-74
2023/01/22 03:29:45;;;;;;;18.53;16.13;;;0.90;99.90;;;;;;4990210;28;20060;-71
2023/01/22 03:32:14;;;;;;;16.03;14.37;;;0.90;99.90;;;;;;4968473;28;20061;-71
2023/01/22 03:34:40;;;;;;;16.93;14.47;;;0.90;99.90;;;;;;4967759;28;20049;-72
2023/01/22 03:37:07;;;;;;;15.87;14.13;;;0.90;99.90;;;;;;4973655;28;20095;-71
2023/01/22 03:39:33;;;;;;;14.90;13.20;;;0.90;99.90;;;;;;4944215;28;20049;-71
2023/01/22 03:42:00;;;;;;;14.07;11.53;;;0.90;99.90;;;;;;4973789;28;20054;-71
2023/01/22 03:44:26;;;;;;;14.10;11.30;;;1.00;99.90;;;;;;4957408;28;20057;-72
2023/01/22 03:46:51;;;;;;;12.23;10.87;;;1.00;99.90;;;;;;4952656;28;20038;-72
2023/01/22 03:49:17;;;;;;;12.17;10.97;;;1.00;99.90;;;;;;4988175;28;20050;-71
2023/01/22 03:52:15;;;;;;;14.73;10.43;;;1.00;99.90;;;;;;4958416;28;20034;-72
2023/01/22 03:54:41;;;;;;;11.87;9.57;;;1.10;99.90;;;;;;4996588;28;20088;-71
2023/01/22 03:57:07;;;;;;;11.20;9.93;;;1.10;99.90;;;;;;5005061;28;20105;-71
2023/01/22 03:59:33;;;;;;;11.20;10.00;;;1.10;99.90;;;;;;4955103;28;20045;-72
2023/01/22 04:01:58;;;;;;;12.03;9.77;;;1.10;99.90;;;;;;4968514;28;20041;-72
2023/01/22 04:04:24;;;;;;;11.27;9.10;;;1.10;99.90;;;;;;4973432;28;20405;-72
2023/01/22 04:06:50;;;;;;;10.93;9.60;;;1.10;99.90;;;;;;4955435;28;20099;-73
2023/01/22 04:09:16;;;;;;;9.87;8.87;;;1.10;99.90;;;;;;4954667;28;20054;-72
2023/01/22 04:11:41;;;;;;;12.80;9.50;;;1.20;99.90;;;;;;4990343;28;20050;-73
2023/01/22 04:14:07;;;;;;;11.83;9.47;;;1.20;99.90;;;;;;4972310;28;20436;-72
2023/01/22 04:16:33;;;;;;;11.70;9.50;;;1.10;99.90;;;;;;4973100;28;20069;-72
2023/01/22 04:18:59;;;;;;;11.47;9.70;;;1.20;99.90;;;;;;4966908;28;20466;-72
2023/01/22 04:21:25;;;;;;;11.40;9.83;;;1.10;99.90;;;;;;4989547;28;20408;-73
2023/01/22 04:23:51;;;;;;;10.73;9.57;;;1.10;99.90;;;;;;4973035;28;20550;-72
2023/01/22 04:26:17;;;;;;;12.13;9.57;;;1.20;99.90;;;;;;4984372;28;20520;-73
2023/01/22 04:28:43;;;;;;;11.20;9.03;;;1.20;99.90;;;;;;4974233;28;20069;-72
2023/01/22 04:31:09;;;;;;;12.23;8.97;;;1.20;99.90;;;;;;4978177;28;20777;-72
2023/01/22 04:33:37;;;;;;;10.80;9.60;;;1.10;99.90;;;;;;4988778;28;20038;-72
2023/01/22 04:36:03;;;;;;;10.20;8.83;;;1.20;99.90;;;;;;4987340;28;20130;-72
2023/01/22 04:38:29;;;;;;;12.73;8.57;;;1.10;99.90;;;;;;4952647;28;20184;-72
2023/01/22 04:40:55;;;;;;;12.17;9.10;;;1.20;99.90;;;;;;4971393;28;20034;-72
2023/01/22 04:43:21;;;;;;;9.97;8.83;;;1.10;99.90;;;;;;4987927;28;20038;-72
2023/01/22 04:45:50;;;;;;;12.53;9.93;;;1.10;99.90;;;;;;4970944;28;20344;-72
2023/01/22 04:48:15;;;;;;;10.60;8.87;;;1.10;99.90;;;;;;4970476;28;20057;-73
2023/01/22 04:50:41;;;;;;;10.57;9.13;;;1.20;99.90;;;;;;4953021;28;20354;-72
2023/01/22 04:53:08;;;;;;;11.50;9.13;;;1.20;99.90;;;;;;4971751;28;20045;-72
2023/01/22 04:55:37;;;;;;;10.73;8.73;;;1.20;99.90;;;;;;4968943;28;20053;-72
2023/01/22 04:58:03;;;;;;;11.30;9.10;;;1.20;99.90;;;;;;4970861;28;20045;-72
2023/01/22 05:00:29;;;;;;;9.93;8.93;;;1.20;99.90;;;;;;4945915;28;20085;-72
2023/01/22 05:02:57;;;;;;;10.70;8.80;;;1.30;99.90;;;;;;4985359;28;20455;-72
2023/01/22 05:05:23;;;;;;;11.27;8.70;;;1.20;99.90;;;;;;4972560;28;20077;-73
2023/01/22 05:07:49;;;;;;;11.57;9.20;;;1.30;99.90;;;;;;4952643;28;20061;-72
2023/01/22 05:10:15;;;;;;;9.63;8.60;;;1.20;99.90;;;;;;4972662;28;20046;-72
2023/01/22 05:12:41;;;;;;;10.23;9.13;;;1.20;99.90;;;;;;4984807;28;20562;-72
2023/01/22 05:15:07;;;;;;;10.00;8.73;;;1.20;99.90;;;;;;4973306;28;20080;-72
2023/01/22 05:17:33;;;;;;;12.10;10.00;;;1.30;99.90;;;;;;4938907;28;20209;-72
2023/01/22 05:19:59;;;;;;;12.23;9.50;;;1.20;99.90;;;;;;4980614;28;20042;-72
2023/01/22 05:22:25;;;;;;;10.57;8.97;;;1.30;99.90;;;;;;4972269;28;20072;-72
2023/01/22 05:24:50;;;;;;;10.23;9.23;;;1.10;99.90;;;;;;4971463;28;20044;-71
2023/01/22 05:27:16;;;;;;;11.93;9.93;;;1.10;99.90;;;;;;4968808;28;20085;-72
2023/01/22 05:29:42;;;;;;;11.23;9.50;;;1.00;99.90;;;;;;4967187;28;20038;-72
2023/01/22 05:32:08;;;;;;;11.30;10.03;;;1.10;99.90;;;;;;4972970;28;20056;-72
2023/01/22 05:34:37;;;;;;;14.53;10.93;;;1.10;99.90;;;;;;4939481;28;20061;-72
2023/01/22 05:37:03;;;;;;;11.53;9.70;;;1.10;99.90;;;;;;4968500;28;20572;-72
2023/01/22 05:39:28;;;;;;;12.13;10.47;;;1.20;99.90;;;;;;4967215;28;20095;-72
2023/01/22 05:41:54;;;;;;;12.67;10.47;;;1.20;99.90;;;;;;4972598;28;20117;-73
2023/01/22 05:44:20;;;;;;;11.37;10.17;;;1.20;99.90;;;;;;4951774;28;20065;-72
2023/01/22 05:46:46;;;;;;;11.17;9.97;;;1.20;99.90;;;;;;4972681;28;20049;-72
2023/01/22 05:49:11;;;;;;;12.70;10.93;;;1.20;99.90;;;;;;4997492;28;20093;-72
2023/01/22 05:51:37;;;;;;;11.17;10.07;;;1.20;99.90;;;;;;4972484;28;20057;-72
2023/01/22 05:54:03;;;;;;;11.00;10.00;;;1.10;99.90;;;;;;4967391;28;20563;-72
2023/01/22 05:56:30;;;;;;;12.10;10.90;;;1.10;99.90;;;;;;4986006;28;20175;-72
2023/01/22 05:58:56;;;;;;;11.60;10.50;;;1.10;99.90;;;;;;4965726;28;20576;-72
2023/01/22 06:01:22;;;;;;;13.10;10.07;;;1.10;99.90;;;;;;4945719;28;20050;-73
2023/01/22 06:03:47;;;;;;;11.77;10.57;;;1.10;99.90;;;;;;4970276;28;20425;-72
2023/01/22 06:06:14;;;;;;;12.23;10.70;;;1.00;99.90;;;;;;4986669;28;20057;-72
2023/01/22 06:08:40;;;;;;;12.60;11.17;;;1.00;99.90;;;;;;4967792;28;20064;-72
2023/01/22 06:11:10;;;;;;;12.93;11.10;;;1.00;99.90;;;;;;4986412;28;20128;-72
2023/01/22 06:13:39;;;;;;;11.82;10.57;;;1.00;99.90;;;;;;4987963;28;20091;-72
2023/01/22 06:16:06;;;;;;;15.43;11.10;;;1.00;99.90;;;;;;4988669;28;20045;-72
2023/01/22 06:18:32;;;;;;;12.47;10.67;;;0.90;99.90;;;;;;4986557;28;20050;-72
2023/01/22 06:21:00;;;;;;;11.23;10.03;;;1.00;99.90;;;;;;4983929;28;20479;-73
2023/01/22 06:23:26;;;;;;;11.53;10.43;;;0.90;99.90;;;;;;4952723;28;20050;-73
2023/01/22 06:25:53;;;;;;;12.17;10.97;;;0.90;99.90;;;;;;4984095;28;20061;-73
2023/01/22 06:28:19;;;;;;;13.43;10.67;;;0.90;99.90;;;;;;4967982;28;20119;-72
2023/01/22 06:30:45;;;;;;;12.27;10.27;;;1.00;99.90;;;;;;4953049;28;20374;-73
2023/01/22 06:33:11;;;;;;;12.33;10.20;;;0.90;99.90;;;;;;4985949;28;20095;-73
2023/01/22 06:35:37;;;;;;;12.67;10.67;;;0.90;99.90;;;;;;4968210;28;20492;-72
2023/01/22 06:38:03;;;;;;;12.37;11.07;;;0.90;99.90;;;;;;4969307;28;20359;-72
2023/01/22 06:40:28;;;;;;;12.00;10.80;;;1.00;99.90;;;;;;4984760;28;20054;-73
2023/01/22 06:42:56;;;;;;;12.77;10.73;;;0.90;99.90;;;;;;4954005;28;20374;-73
2023/01/22 06:45:23;;;;;;;13.73;11.00;;;0.90;99.90;;;;;;4984100;28;20420;-72
2023/01/22 06:47:48;;;;;;;12.13;10.93;;;0.90;99.90;;;;;;4986539;28;20057;-72
2023/01/22 06:50:14;;;;;;;12.50;11.27;;;0.90;99.90;;;;;;4964226;28;20042;-72
2023/01/22 06:52:40;;;;;;;13.37;11.20;;;0.90;99.90;;;;;;4951042;28;20161;-72
2023/01/22 06:55:09;;;;;;;14.47;11.77;;;0.90;99.90;;;;;;4952218;28;20053;-73
2023/01/22 06:57:35;;;;;;;12.80;11.50;;;0.80;99.90;;;;;;4987746;28;20050;-73
2023/01/22 07:00:01;;;;;;;12.63;10.67;;;0.80;99.90;;;;;;4969945;28;20096;-72
2023/01/22 07:02:26;;;;;;;13.60;12.30;;;0.80;99.90;;;;;;4959204;28;20129;-72
2023/01/22 07:04:55;;;;;;;13.10;11.80;;;0.80;99.90;;;;;;4970681;28;20124;-73
2023/01/22 07:07:21;;;;;;;12.90;11.43;;;0.90;99.90;;;;;;4983358;28;20053;-74
2023/01/22 07:09:47;;;;;;;14.10;12.33;;;0.80;99.90;;;;;;4964813;28;20037;-74
2023/01/22 07:12:12;;;;;;;12.83;11.53;;;0.90;99.90;;;;;;4955528;28;20508;-72
2023/01/22 07:14:38;;;;;;;13.67;12.27;;;0.80;99.90;;;;;;4965710;28;20106;-71
2023/01/22 07:17:04;;;;;;;12.93;11.63;;;0.80;99.90;;;;;;4966924;28;20060;-71
2023/01/22 07:19:30;;;;;;;12.53;11.33;;;0.80;99.90;;;;;;4961742;28;20420;-70
2023/01/22 07:21:56;;;;;;;13.73;12.30;;;0.90;99.90;;;;;;4972325;28;20037;-74
2023/01/22 07:24:22;;;;;;;15.10;12.27;;;0.80;99.90;;;;;;4952686;28;20042;-74
2023/01/22 07:26:48;;;;;;;12.53;11.30;;;0.80;99.90;;;;;;4972685;28;20108;-74
2023/01/22 07:29:14;;;;;;;15.30;12.77;;;0.80;99.90;;;;;;4972223;28;20094;-74
2023/01/22 07:31:39;;;;;;;12.67;11.40;;;0.80;99.90;;;;;;5007435;28;20543;-74
2023/01/22 07:34:06;;;;;;;12.50;11.27;;;0.90;99.90;;;;;;4938775;28;20042;-74
2023/01/22 07:36:32;;;;;;;13.43;12.03;;;0.80;99.90;;;;;;4972240;28;20054;-76
2023/01/22 07:38:57;;;;;;;14.13;12.40;;;0.80;99.90;;;;;;4987795;28;20042;-74
2023/01/22 07:41:25;;;;;;;12.90;11.37;;;0.70;99.90;;;;;;4972543;28;20041;-74
2023/01/22 07:43:56;;;;;;;13.27;11.97;;;0.80;99.90;;;;;;4988430;28;20038;-74
2023/01/22 07:46:22;;;;;;;13.47;12.07;;;0.80;99.90;;;;;;4988133;28;20458;-74
2023/01/22 07:48:48;;;;;;;13.63;11.13;;;0.80;99.90;;;;;;4972877;28;20044;-74
2023/01/22 07:51:14;;;;;;;13.73;12.30;;;0.80;99.90;;;;;;4987665;28;20416;-74
2023/01/22 07:53:41;;;;;;;12.67;11.47;;;0.80;99.90;;;;;;4972213;28;20068;-74
2023/01/22 07:56:07;;;;;;;12.80;11.50;;;0.70;99.90;;;;;;4963223;28;20501;-74
2023/01/22 07:58:33;;;;;;;15.00;11.90;;;0.70;99.90;;;;;;4961247;28;20085;-73
2023/01/22 08:00:59;;;;;;;13.77;11.93;;;0.70;99.90;;;;;;4970825;28;20038;-74
2023/01/22 08:03:25;;;;;;;15.07;12.27;;;0.70;99.90;;;;;;4957032;28;20099;-74
2023/01/22 08:05:50;;;;;;;13.00;11.60;;;0.70;99.90;;;;;;4971284;28;20460;-74
2023/01/22 08:08:19;;;;;;;13.73;12.33;;;0.70;99.90;;;;;;4988441;28;20046;-75
2023/01/22 08:10:45;;;;;;;13.30;12.00;;;0.70;99.90;;;;;;4956550;28;20148;-74
2023/01/22 08:13:11;;;;;;;14.10;12.43;;;0.70;99.90;;;;;;4976269;28;20074;-74
2023/01/22 08:15:37;;;;;;;14.27;12.77;;;0.70;99.90;;;;;;4987482;28;20121;-74
2023/01/22 08:18:03;;;;;;;14.40;12.47;;;0.70;99.90;;;;;;4972253;28;20832;-74
2023/01/22 08:20:29;;;;;;;13.80;12.30;;;0.70;99.90;;;;;;4970951;28;20045;-74
2023/01/22 08:22:59;;;;;;;14.93;13.33;;;0.70;99.90;;;;;;4972377;28;20446;-74
2023/01/22 08:25:26;;;;;;;14.43;13.02;;;0.80;99.90;;;;;;4955206;28;20620;-74
2023/01/22 08:27:52;;;;;;;14.50;13.00;;;0.70;99.90;;;;;;4988460;28;20042;-74
2023/01/22 08:30:17;;;;;;;14.23;12.83;;;0.70;99.90;;;;;;4972682;28;20052;-74
2023/01/22 08:32:44;;;;;;;13.40;12.03;;;0.80;99.90;;;;;;4952747;28;20080;-73
2023/01/22 08:35:11;;;;;;;14.63;13.17;;;0.80;99.90;;;;;;4968736;28;20096;-73
2023/01/22 08:37:37;;;;;;;13.93;12.43;;;0.90;99.90;;;;;;4970775;28;20046;-73
2023/01/22 08:40:04;;;;;;;14.40;12.90;;;0.90;99.90;;;;;;4965912;28;20484;-72
2023/01/22 08:42:30;;;;;;;13.90;12.43;;;0.90;99.90;;;;;;4971039;28;20041;-72
2023/01/22 08:44:56;;;;;;;13.03;11.57;;;0.90;99.90;;;;;;4986331;28;20045;-73
2023/01/22 08:47:21;;;;;;;14.07;12.57;;;1.00;99.90;;;;;;4969646;28;20487;-73
2023/01/22 08:49:47;;;;;;;14.23;12.87;;;1.00;99.90;;;;;;4969165;28;20088;-72
2023/01/22 08:52:13;;;;;;;12.47;11.23;;;1.00;99.90;;;;;;4955127;28;20056;-71
2023/01/22 08:54:39;;;;;;;13.70;12.30;;;1.00;99.90;;;;;;4969801;28;20525;-72
2023/01/22 08:57:05;;;;;;;13.00;11.33;;;1.00;99.90;;;;;;4971580;28;20042;-72
2023/01/22 08:59:30;;;;;;;13.23;11.93;;;1.00;99.90;;;;;;4940182;28;20512;-72
2023/01/22 09:02:00;;;;;;;15.67;12.13;;;0.90;99.90;;;;;;4947976;28;20052;-72
2023/01/22 09:04:27;;;;;;;14.23;12.43;;;1.00;99.90;;;;;;4979937;28;20046;-72
2023/01/22 09:06:53;;;;;;;13.87;12.40;;;1.00;99.90;;;;;;4951725;28;20709;-73
2023/01/22 09:09:19;;;;;;;14.60;12.33;;;1.00;99.90;;;;;;4986177;28;20100;-73
2023/01/22 09:11:45;;;;;;;14.10;11.53;;;1.00;99.90;;;;;;4952308;28;20488;-72
2023/01/22 09:14:11;;;;;;;14.10;12.30;;;1.00;99.90;;;;;;4966825;28;20057;-72
2023/01/22 09:16:48;;;;;;;13.87;12.00;;;1.00;99.90;;;;;;4969750;28;20104;-74
2023/01/22 09:19:13;;;;;;;13.80;11.47;;;1.00;99.90;;;;;;4954252;28;20049;-74
2023/01/22 09:21:39;;;;;;;13.53;12.10;;;1.00;99.90;;;;;;4987774;28;20065;-73
2023/01/22 09:24:06;;;;;;;13.63;12.23;;;1.00;99.90;;;;;;4983761;28;20046;-74
2023/01/22 09:26:32;;;;;;;14.77;13.27;;;1.00;99.90;;;;;;4956529;28;20050;-73
2023/01/22 09:28:59;;;;;;;13.83;12.37;;;1.10;99.90;;;;;;4964357;28;20041;-74
2023/01/22 09:31:28;;;;;;;14.03;12.60;;;1.10;99.90;;;;;;4957451;28;20058;-74
2023/01/22 09:33:54;;;;;;;14.33;12.83;;;1.10;99.90;;;;;;4967018;28;20042;-74
2023/01/22 09:36:20;;;;;;;13.97;12.60;;;1.10;99.90;;;;;;4968248;28;20398;-74
2023/01/22 09:38:46;;;;;;;14.60;13.10;;;1.10;99.90;;;;;;4971222;28;20046;-74
2023/01/22 09:41:19;;;;;;;13.50;12.10;;;1.20;99.90;;;;;;4957640;28;20046;-74
2023/01/22 09:44:14;;;;;;;14.37;12.87;;;1.20;99.90;;;;;;4974727;28;22195;-74
2023/01/22 09:46:55;;;;;;;13.23;11.93;;;1.20;99.90;;;;;;4986927;28;20065;-74
2023/01/22 09:49:27;;;;;;;13.13;11.83;;;1.20;99.90;;;;;;4973261;28;20057;-74
2023/01/22 09:52:02;;;;;;;13.13;11.83;;;1.30;99.90;;;;;;4987846;28;20386;-74
2023/01/22 09:54:29;;;;;;;13.30;12.00;;;1.30;99.90;;;;;;4968260;28;20046;-72
2023/01/22 09:56:58;;;;;;;13.47;12.13;;;1.30;99.90;;;;;;4986451;28;20041;-73
2023/01/22 09:59:35;;;;;;;13.60;11.60;;;1.30;99.90;;;;;;4982462;28;21206;-73
2023/01/22 10:02:24;;;;;;;14.23;12.43;;;1.30;99.90;;;;;;4969056;28;20228;-73
2023/01/22 10:04:54;;;;;;;12.80;11.50;;;1.30;99.90;;;;;;4961039;28;20061;-72
2023/01/22 10:07:35;;;;;;;14.67;11.93;;;1.30;99.90;;;;;;4986011;28;20084;-73
2023/01/22 10:10:21;;;;;;;13.00;11.53;;;1.30;99.90;;;;;;4987178;28;20049;-73
2023/01/22 10:13:01;;;;;;;13.10;11.70;;;1.30;99.90;;;;;;4986554;28;20052;-73
2023/01/22 10:15:27;;;;;;;13.90;12.60;;;1.40;99.90;;;;;;4958605;28;20065;-73
2023/01/22 10:17:57;;;;;;;15.07;12.00;;;1.30;99.90;;;;;;4936149;28;20038;-73
2023/01/22 10:20:23;;;;;;;13.93;12.60;;;1.30;99.90;;;;;;4963249;28;20100;-73
2023/01/22 10:22:52;;;;;;;13.33;11.93;;;1.30;99.90;;;;;;4954816;28;20057;-73
2023/01/22 10:25:18;;;;;;;13.87;12.40;;;1.40;99.90;;;;;;4984370;28;20046;-73
2023/01/22 10:27:46;;;;;;;14.33;12.83;;;1.40;99.90;;;;;;4958505;28;20618;-72
2023/01/22 10:30:22;;;;;;;17.63;13.30;;;1.50;99.90;;;;;;4971702;28;20057;-73
2023/01/22 10:33:21;;;;;;;14.43;12.97;;;1.40;99.90;;;;;;4990545;28;20492;-73
2023/01/22 10:35:51;;;;;;;13.70;12.00;;;1.50;99.90;;;;;;4979924;28;20056;-72
2023/01/22 10:38:26;;;;;;;16.67;13.63;;;1.50;99.90;;;;;;4994339;28;20081;-73
2023/01/22 10:40:55;;;;;;;14.43;12.77;;;1.50;99.90;;;;;;4971584;28;20066;-72
2023/01/22 10:43:21;;;;;;;14.40;12.87;;;1.50;99.90;;;;;;4975945;28;20101;-67
2023/01/22 10:45:56;;;;;;;15.60;14.10;;;1.50;99.90;;;;;;4981701;28;20092;-75
2023/01/22 10:48:22;;;;;;;15.60;14.00;;;1.50;99.90;;;;;;4991595;28;20042;-75
2023/01/22 10:51:12;;;;;;;18.00;16.20;;;1.50;99.90;;;;;;4991707;28;20045;-75
2023/01/22 10:53:43;;;;;;;;;;;1.50;99.90;;;;;;4994037;28;20033;-70
2023/01/22 10:56:11;;;;;;;21.10;17.37;;;1.50;99.90;;;;;;4976297;28;19953;-71
2023/01/22 10:58:38;;;;;;;16.20;14.50;;;1.50;99.90;;;;;;4964052;28;20046;-70
2023/01/22 11:01:20;;;;;;;16.50;14.80;;;1.60;99.90;;;;;;4974811;28;20042;-70
2023/01/22 11:03:46;;;;;;;15.33;13.83;;;1.60;99.90;;;;;;4975897;28;20116;-70
2023/01/22 11:06:18;;;;;;;15.77;14.17;;;1.60;99.90;;;;;;4989290;28;20153;-70
2023/01/22 11:08:52;;;;;;;16.97;15.17;;;1.70;99.90;;;;;;4994219;28;20077;-70
2023/01/22 11:11:24;;;;;;;16.10;14.30;;;1.70;99.90;;;;;;4975673;28;20046;-70
2023/01/22 11:13:59;;;;;;;16.90;15.20;;;1.70;99.90;;;;;;4974364;28;20037;-70
2023/01/22 11:16:30;;;;;;;15.13;13.73;;;1.70;99.90;;;;;;4970801;28;20440;-74
2023/01/22 11:19:13;;;;;;;15.17;13.77;;;1.70;99.90;;;;;;4987461;28;20049;-75
2023/01/22 11:21:46;;;;;;;14.47;13.07;;;1.70;99.90;;;;;;4960542;28;20046;-72
2023/01/22 11:24:23;;;;;;;19.60;17.60;;;1.70;99.90;;;;;;4964249;28;20069;-72
2023/01/22 11:27:04;;;;;;;17.30;15.55;;;1.80;99.90;;;;;;4957831;28;20083;-72
2023/01/22 11:29:36;;;;;;;15.27;13.87;;;1.80;99.90;;;;;;4975457;28;20078;-72
2023/01/22 11:32:35;;;;;;;19.27;17.27;;;1.80;99.90;;;;;;4956808;28;20443;-72
2023/01/22 11:35:17;;;;;;;16.47;14.87;;;1.90;99.90;;;;;;4964551;28;20544;-74
2023/01/22 11:37:49;;;;;;;17.07;15.37;;;1.90;99.90;;;;;;4968225;28;20052;-74
2023/01/22 11:40:32;;;;;;;15.40;13.83;;;2.00;99.90;;;;;;4987125;28;20046;-71
2023/01/22 11:43:15;;;;;;;16.87;15.17;;;2.00;99.90;;;;;;4989303;28;20065;-68
2023/01/22 11:46:08;;;;;;;16.90;15.30;;;2.00;99.90;;;;;;4985087;28;20182;-68
2023/01/22 11:48:52;;;;;;;16.87;15.07;;;2.10;99.90;;;;;;4991972;28;20056;-68
2023/01/22 11:51:29;;;;;;;15.63;14.03;;;2.10;99.90;;;;;;4985354;28;20046;-68
2023/01/22 11:54:11;;;;;;;16.60;14.83;;;2.10;99.90;;;;;;4986280;28;20365;-68
2023/01/22 11:57:01;;;;;;;15.93;14.37;;;2.10;99.90;;;;;;4973663;28;20578;-68
2023/01/22 11:59:39;;;;;;;18.58;16.38;;;2.20;99.90;;;;;;4987478;28;20058;-68
2023/01/22 12:02:26;;;;;;;20.93;18.83;;;2.20;99.90;;;;;;4972050;28;20320;-68
2023/01/22 12:05:07;;;;;;;21.33;19.13;;;2.30;99.90;;;;;;4966151;28;20053;-68
2023/01/22 12:08:16;;;;;;;18.00;16.20;;;2.30;99.90;;;;;;4985942;28;20053;-68
2023/01/22 12:11:13;;;;;;;15.33;13.93;;;2.20;99.90;;;;;;4983495;28;20108;-68
2023/01/22 12:13:38;;;;;;;16.47;14.77;;;2.20;99.90;;;;;;4985697;28;20134;-68
2023/01/22 12:16:40;;;;;;;16.50;14.90;;;2.20;99.90;;;;;;4989091;28;20034;-68
2023/01/22 12:19:33;;;;;;;18.07;15.77;;;2.20;99.90;;;;;;4982239;28;20373;-68
2023/01/22 12:22:30;;;;;;;16.13;14.57;;;2.20;99.90;;;;;;4987505;28;20119;-68
2023/01/22 12:25:30;;;;;;;17.45;15.80;;;2.20;99.90;;;;;;5002334;28;20046;-68
2023/01/22 12:28:20;;;;;;;16.23;14.63;;;2.20;99.90;;;;;;4984115;28;20493;-68
2023/01/22 12:31:09;;;;;;;16.63;15.07;;;2.20;99.90;;;;;;4969767;28;20050;-68
2023/01/22 12:33:40;;;;;;;15.97;14.37;;;2.20;99.90;;;;;;4976792;28;20070;-68
2023/01/22 12:36:08;;;;;;;15.75;13.95;;;2.20;99.90;;;;;;4986405;28;20046;-69
2023/01/22 12:38:53;;;;;;;15.53;13.93;;;2.20;99.90;;;;;;4944986;28;20161;-69
2023/01/22 12:41:44;;;;;;;17.37;15.77;;;2.30;99.90;;;;;;4981365;28;20105;-69
2023/01/22 12:44:20;;;;;;;16.57;14.87;;;2.30;99.90;;;;;;4932683;28;20058;-69
2023/01/22 12:47:09;;;;;;;15.80;14.20;;;2.30;99.90;;;;;;4978199;28;20303;-68
2023/01/22 12:49:47;;;;;;;14.77;13.27;;;2.30;99.90;;;;;;4980170;28;20058;-69
2023/01/22 12:52:26;;;;;;;16.23;14.52;;;2.30;99.90;;;;;;4971185;28;20038;-73
2023/01/22 12:54:55;;;;;;;14.47;13.07;;;2.30;99.90;;;;;;4980876;28;20038;-73
2023/01/22 12:57:24;;;;;;;15.30;13.83;;;2.30;99.90;;;;;;4958108;28;20506;-73
2023/01/22 12:59:57;;;;;;;16.47;14.97;;;2.30;99.90;;;;;;4981185;28;20047;-73
2023/01/22 13:02:25;;;;;;;16.60;14.90;;;2.30;99.90;;;;;;4964036;28;20056;-73